Time;durP1;ratioP1;P1;durP2;ratioP2;P2;SDS_P1;SDS_P2;PMS_P1;PMS_P2;Temp;Humidity;BMP_temperature;BMP_pressure;BME280_temperature;BME280_humidity;BME280_pressure;Samples;Min_cycle;Max_cycle;Signal;HPM_P1;HPM_P2
2023/01/12 00:01:49;;;;;;;29.08;7.40;;;4.80;99.90;;;;;;5040446;28;20124;-88
2023/01/12 00:04:15;;;;;;;20.63;5.70;;;4.80;99.90;;;;;;5040588;28;20039;-89
2023/01/12 00:06:41;;;;;;;34.50;5.78;;;4.80;99.90;;;;;;5039920;28;20130;-91
2023/01/12 00:09:08;;;;;;;32.22;5.32;;;4.80;99.90;;;;;;5039944;28;20036;-91
2023/01/12 00:11:36;;;;;;;40.70;5.00;;;4.80;99.90;;;;;;4955720;28;20088;-90
2023/01/12 00:14:02;;;;;;;26.27;4.28;;;4.80;99.90;;;;;;4971713;28;20027;-89
2023/01/12 00:16:34;;;;;;;22.00;4.45;;;4.90;99.90;;;;;;4972182;28;20031;-91
2023/01/12 00:19:00;;;;;;;30.10;4.57;;;4.90;99.90;;;;;;4955799;29;20034;-90
2023/01/12 00:21:26;;;;;;;28.65;4.70;;;4.90;99.90;;;;;;4971110;28;20035;-90
2023/01/12 00:23:51;;;;;;;27.30;4.40;;;4.80;99.90;;;;;;5039350;28;20024;-91
2023/01/12 00:26:17;;;;;;;28.00;4.78;;;4.80;99.90;;;;;;4955606;28;20035;-89
2023/01/12 00:28:43;;;;;;;24.88;4.55;;;4.80;99.90;;;;;;5039712;28;20031;-90
2023/01/12 00:31:10;;;;;;;27.27;5.50;;;4.80;99.90;;;;;;4971752;28;20085;-90
2023/01/12 00:33:37;;;;;;;20.17;4.35;;;4.80;99.90;;;;;;5040233;28;20039;-91
2023/01/12 00:36:12;;;;;;;29.48;5.28;;;4.80;99.90;;;;;;4955385;28;20026;-90
2023/01/12 00:38:38;;;;;;;26.77;5.03;;;4.70;99.90;;;;;;4955830;28;20039;-89
2023/01/12 00:41:06;;;;;;;36.13;5.03;;;4.80;99.90;;;;;;5039677;28;20130;-90
2023/01/12 00:46:16;;;;;;;29.38;5.07;;;4.80;99.90;;;;;;4971715;28;20047;-89
2023/01/12 00:48:42;;;;;;;21.75;4.68;;;4.80;99.90;;;;;;5037493;28;20471;-89
2023/01/12 00:51:07;;;;;;;29.63;4.57;;;4.80;99.90;;;;;;5040179;28;20569;-90
2023/01/12 00:53:36;;;;;;;26.55;5.55;;;4.80;99.90;;;;;;5039104;28;20115;-90
2023/01/12 00:56:03;;;;;;;27.80;6.07;;;4.80;99.90;;;;;;4954999;28;20035;-89
2023/01/12 00:58:29;;;;;;;21.67;5.13;;;4.80;99.90;;;;;;4954628;28;20204;-90
2023/01/12 01:01:07;;;;;;;28.35;5.70;;;4.80;99.90;;;;;;5039245;28;20070;-89
2023/01/12 01:03:34;;;;;;;24.73;4.90;;;4.80;99.90;;;;;;5038951;28;20057;-90
2023/01/12 01:06:04;;;;;;;26.52;5.90;;;4.80;99.90;;;;;;4954864;29;20394;-89
2023/01/12 01:08:30;;;;;;;28.73;5.25;;;4.80;99.90;;;;;;4954843;29;20510;-90
2023/01/12 01:11:08;;;;;;;32.40;6.75;;;4.80;99.90;;;;;;5039129;28;20042;-91
2023/01/12 01:13:35;;;;;;;25.45;4.05;;;4.70;99.90;;;;;;4955008;29;20027;-90
2023/01/12 01:16:03;;;;;;;46.20;9.15;;;4.70;99.90;;;;;;5039619;28;20035;-90
2023/01/12 01:18:30;;;;;;;29.45;6.30;;;4.70;99.90;;;;;;4954700;29;20091;-90
2023/01/12 01:20:55;;;;;;;24.85;4.07;;;4.70;99.90;;;;;;4954889;28;20135;-90
2023/01/12 01:23:23;;;;;;;27.70;4.15;;;4.70;99.90;;;;;;4970828;28;20122;-90
2023/01/12 01:25:49;;;;;;;18.80;4.22;;;4.70;99.90;;;;;;4954536;29;20368;-90
2023/01/12 01:28:16;;;;;;;34.58;5.00;;;4.70;99.90;;;;;;4954245;28;20046;-89
2023/01/12 01:30:42;;;;;;;23.08;4.22;;;4.70;99.90;;;;;;4955071;28;20028;-89
2023/01/12 01:33:08;;;;;;;19.67;5.85;;;4.70;99.90;;;;;;4954317;28;20027;-90
2023/01/12 01:35:35;;;;;;;30.77;4.32;;;4.70;99.90;;;;;;5038327;28;20027;-89
2023/01/12 01:38:01;;;;;;;44.67;6.25;;;4.70;99.90;;;;;;5038418;28;20491;-90
2023/01/12 01:40:26;;;;;;;27.55;5.35;;;4.70;99.90;;;;;;5038230;28;20041;-89
2023/01/12 01:42:52;;;;;;;31.70;4.38;;;4.70;99.90;;;;;;5038788;28;20035;-91
2023/01/12 01:45:18;;;;;;;31.00;4.40;;;4.70;99.90;;;;;;4954792;28;20118;-90
2023/01/12 01:47:49;;;;;;;19.80;4.45;;;4.70;99.90;;;;;;4954458;28;20066;-90
2023/01/12 01:50:24;;;;;;;18.30;3.80;;;4.80;99.90;;;;;;4954863;29;20082;-89
2023/01/12 01:53:02;;;;;;;21.52;3.92;;;4.80;99.90;;;;;;5056016;28;20027;-90
2023/01/12 01:55:33;;;;;;;23.30;4.22;;;4.80;99.90;;;;;;4954966;29;20032;-90
2023/01/12 01:58:09;;;;;;;31.75;3.95;;;4.90;99.90;;;;;;4954580;28;20062;-90
2023/01/12 02:00:41;;;;;;;27.10;3.95;;;4.90;99.90;;;;;;4953893;29;20097;-90
2023/01/12 02:03:07;;;;;;;22.00;3.55;;;5.00;99.90;;;;;;4954372;29;20122;-89
2023/01/12 02:05:33;;;;;;;26.33;4.18;;;5.00;99.90;;;;;;4953830;29;20031;-89
2023/01/12 02:08:15;;;;;;;23.42;4.78;;;5.00;99.90;;;;;;4954795;29;20467;-90
2023/01/12 02:10:41;;;;;;;17.40;3.53;;;5.10;99.90;;;;;;4954062;29;20445;-90
2023/01/12 02:16:21;;;;;;;23.08;6.35;;;5.10;99.90;;;;;;4970008;28;20033;-89
2023/01/12 02:19:16;;;;;;;24.30;4.30;;;5.10;99.90;;;;;;4954012;28;20089;-89
2023/01/12 02:22:13;;;;;;;25.70;4.10;;;5.10;99.90;;;;;;4953825;29;20023;-89
2023/01/12 02:24:45;;;;;;;32.75;3.90;;;5.10;99.90;;;;;;4953657;28;20035;-89
2023/01/12 02:27:11;;;;;;;24.30;3.28;;;5.10;99.90;;;;;;4953668;29;20383;-89
2023/01/12 02:29:59;;;;;;;21.35;3.65;;;5.20;99.90;;;;;;4969748;28;20035;-89
2023/01/12 02:32:31;;;;;;;21.92;3.25;;;5.20;99.90;;;;;;4953680;29;20058;-90
2023/01/12 02:35:11;;;;;;;;;;;5.20;99.90;;;;;;4970073;28;20039;-90
2023/01/12 02:37:59;;;;;;;22.70;3.53;;;5.20;99.90;;;;;;5054542;28;19922;-90
2023/01/12 02:40:35;;;;;;;32.42;5.80;;;5.20;99.90;;;;;;5054647;28;20035;-89
2023/01/12 02:43:16;;;;;;;31.48;3.67;;;5.20;99.90;;;;;;4953718;29;20066;-89
2023/01/12 02:45:56;;;;;;;31.08;3.33;;;5.20;99.90;;;;;;4953776;29;20032;-89
2023/01/12 02:48:27;;;;;;;23.83;3.75;;;5.20;99.90;;;;;;5037482;28;20089;-89
2023/01/12 02:50:57;;;;;;;;;;;5.20;99.90;;;;;;4953878;29;20071;-90
2023/01/12 02:53:42;;;;;;;25.05;3.45;;;5.20;99.90;;;;;;4969678;28;19915;-90
2023/01/12 02:56:10;;;;;;;15.18;3.53;;;5.20;99.90;;;;;;4970053;28;20038;-89
2023/01/12 02:58:43;;;;;;;20.50;3.20;;;5.20;99.90;;;;;;4954077;29;20032;-90
2023/01/12 03:01:10;;;;;;;34.72;4.03;;;5.20;99.90;;;;;;4953403;29;20031;-90
2023/01/12 03:03:38;;;;;;;20.75;3.42;;;5.20;99.90;;;;;;4953298;28;20070;-90
2023/01/12 03:06:05;;;;;;;34.97;3.28;;;5.20;99.90;;;;;;4969263;28;20475;-89
2023/01/12 03:08:33;;;;;;;22.83;3.53;;;5.30;99.90;;;;;;5037139;28;20455;-89
2023/01/12 03:10:59;;;;;;;29.42;4.43;;;5.30;99.90;;;;;;4951937;29;20035;-89
2023/01/12 03:13:27;;;;;;;19.30;3.15;;;5.30;99.90;;;;;;4968777;28;20089;-89
2023/01/12 03:15:55;;;;;;;14.82;3.60;;;5.30;99.90;;;;;;4953568;28;20027;-89
2023/01/12 03:18:40;;;;;;;24.08;3.60;;;5.30;99.90;;;;;;4952618;29;20031;-89
2023/01/12 03:21:19;;;;;;;34.20;3.60;;;5.30;99.90;;;;;;4969319;28;20036;-89
2023/01/12 03:23:50;;;;;;;21.02;3.75;;;5.30;99.90;;;;;;4953050;29;20460;-90
2023/01/12 03:26:22;;;;;;;22.58;4.13;;;5.40;99.90;;;;;;4952622;29;20845;-89
2023/01/12 03:28:55;;;;;;;22.73;4.93;;;5.40;99.90;;;;;;4953016;29;20457;-89
2023/01/12 03:31:22;;;;;;;21.83;3.78;;;5.40;99.90;;;;;;4952703;29;20110;-89
2023/01/12 03:33:48;;;;;;;27.70;3.80;;;5.40;99.90;;;;;;4952633;29;20050;-89
2023/01/12 03:36:27;;;;;;;19.38;3.50;;;5.40;99.90;;;;;;5037038;28;20028;-89
2023/01/12 03:39:35;;;;;;;19.35;3.33;;;5.40;99.90;;;;;;4968665;28;20040;-89
2023/01/12 03:42:16;;;;;;;28.80;3.88;;;5.40;99.90;;;;;;4947341;28;20035;-90
2023/01/12 03:45:21;;;;;;;17.30;3.45;;;5.40;99.90;;;;;;4968997;28;20035;-90
2023/01/12 03:47:53;;;;;;;22.45;3.38;;;5.50;99.90;;;;;;4940235;28;20043;-90
2023/01/12 03:50:25;;;;;;;24.30;3.55;;;5.40;99.90;;;;;;4969078;28;20080;-90
2023/01/12 03:52:52;;;;;;;;;;;5.50;99.90;;;;;;4969607;28;20035;-89
2023/01/12 03:55:22;;;;;;;16.92;3.03;;;5.40;99.90;;;;;;4969019;28;20319;-90
2023/01/12 03:57:49;;;;;;;21.95;3.33;;;5.40;99.90;;;;;;4968857;28;20051;-90
2023/01/12 04:00:17;;;;;;;15.65;3.50;;;5.50;99.90;;;;;;4952696;29;20035;-89
2023/01/12 04:02:43;;;;;;;16.92;3.40;;;5.40;99.90;;;;;;4952691;28;20035;-90
2023/01/12 04:05:12;;;;;;;16.35;3.40;;;5.40;99.90;;;;;;5036307;28;20029;-89
2023/01/12 04:07:38;;;;;;;15.75;3.28;;;5.40;99.90;;;;;;4952631;28;20470;-90
2023/01/12 04:10:04;;;;;;;20.52;3.50;;;5.40;99.90;;;;;;4952727;29;20106;-89
2023/01/12 04:12:30;;;;;;;14.75;2.63;;;5.50;99.90;;;;;;4952193;29;20389;-88
2023/01/12 04:14:55;;;;;;;18.35;4.20;;;5.50;99.90;;;;;;4952105;28;20031;-89
2023/01/12 04:17:24;;;;;;;17.63;3.83;;;5.50;99.90;;;;;;5036595;28;20070;-89
2023/01/12 04:20:42;;;;;;;15.55;4.68;;;5.50;99.90;;;;;;5035845;28;20047;-91
2023/01/12 04:23:08;;;;;;;24.70;3.67;;;5.50;99.90;;;;;;4970741;28;20382;-89
2023/01/12 04:25:34;;;;;;;21.00;3.22;;;5.50;99.90;;;;;;5040039;28;20042;-89
2023/01/12 04:28:01;;;;;;;22.60;3.85;;;5.50;99.90;;;;;;5039188;28;20605;-89
2023/01/12 04:30:29;;;;;;;13.88;2.83;;;5.50;99.90;;;;;;5039932;28;20031;-90
2023/01/12 04:32:55;;;;;;;14.40;3.50;;;5.50;99.90;;;;;;4955162;28;20371;-90
2023/01/12 04:35:23;;;;;;;20.63;3.13;;;5.50;99.90;;;;;;5039820;28;20031;-89
2023/01/12 04:37:49;;;;;;;26.35;3.72;;;5.50;99.90;;;;;;4954997;28;20044;-89
2023/01/12 04:40:16;;;;;;;24.30;4.20;;;5.50;99.90;;;;;;4954985;28;20379;-90
2023/01/12 04:43:00;;;;;;;20.92;3.63;;;5.50;99.90;;;;;;4954775;28;20081;-90
2023/01/12 04:45:30;;;;;;;22.73;4.30;;;5.50;99.90;;;;;;4955004;29;20031;-89
2023/01/12 04:47:59;;;;;;;26.73;3.95;;;5.50;99.90;;;;;;4954959;28;20090;-89
2023/01/12 04:50:25;;;;;;;20.08;3.53;;;5.50;99.90;;;;;;4954845;28;20077;-91
2023/01/12 04:52:50;;;;;;;22.10;4.80;;;5.50;99.90;;;;;;5039479;28;20031;-90
2023/01/12 04:55:16;;;;;;;24.35;4.13;;;5.50;99.90;;;;;;5039243;28;20054;-89
2023/01/12 04:57:42;;;;;;;17.73;3.78;;;5.50;99.90;;;;;;4970864;28;20027;-88
2023/01/12 05:00:08;;;;;;;23.48;4.70;;;5.50;99.90;;;;;;5039280;28;20031;-89
2023/01/12 05:02:33;;;;;;;30.15;4.07;;;5.50;99.90;;;;;;4954747;29;20032;-89
2023/01/12 05:04:59;;;;;;;20.95;3.45;;;5.40;99.90;;;;;;5039809;28;20131;-89
2023/01/12 05:07:25;;;;;;;23.13;3.65;;;5.50;99.90;;;;;;5039201;28;20470;-90
2023/01/12 05:12:35;;;;;;;28.65;3.90;;;5.50;99.90;;;;;;4970730;28;20042;-91
2023/01/12 05:15:02;;;;;;;19.77;3.83;;;5.50;99.90;;;;;;5038971;28;20467;-90
2023/01/12 05:17:28;;;;;;;29.17;3.83;;;5.50;99.90;;;;;;5038934;28;20425;-89
2023/01/12 05:19:53;;;;;;;39.75;12.65;;;5.40;99.90;;;;;;5039137;28;20039;-90
2023/01/12 05:22:19;;;;;;;28.55;5.15;;;5.40;99.90;;;;;;5038804;28;20028;-91
2023/01/12 05:24:45;;;;;;;22.30;4.68;;;5.40;99.90;;;;;;5039394;28;20042;-92
2023/01/12 05:27:10;;;;;;;19.35;3.35;;;5.40;99.90;;;;;;5040270;28;20066;-91
2023/01/12 05:29:36;;;;;;;25.90;4.65;;;5.30;99.90;;;;;;5039397;28;20042;-90
2023/01/12 05:32:02;;;;;;;23.67;3.83;;;5.30;99.90;;;;;;5040088;28;20054;-92
2023/01/12 05:34:27;;;;;;;21.60;4.03;;;5.20;99.90;;;;;;5038825;28;20035;-90
2023/01/12 05:36:53;;;;;;;24.98;3.88;;;5.20;99.90;;;;;;5039127;28;20463;-91
2023/01/12 05:39:20;;;;;;;21.88;4.05;;;5.20;99.90;;;;;;5039614;28;20474;-90
2023/01/12 05:44:55;;;;;;;18.25;3.85;;;5.20;99.90;;;;;;4971102;28;20498;-90
2023/01/12 05:47:21;;;;;;;30.73;4.77;;;5.10;99.90;;;;;;5039098;28;20035;-90
2023/01/12 05:49:46;;;;;;;15.38;4.20;;;5.10;99.90;;;;;;5039565;28;20061;-91
2023/01/12 05:52:12;;;;;;;34.33;5.85;;;5.20;99.90;;;;;;5038955;28;20027;-91
2023/01/12 05:54:38;;;;;;;19.88;4.50;;;5.20;99.90;;;;;;5039324;28;20046;-90
2023/01/12 05:57:03;;;;;;;33.33;5.32;;;5.20;99.90;;;;;;5039504;28;20031;-91
2023/01/12 05:59:29;;;;;;;19.75;5.13;;;5.20;99.90;;;;;;5039653;28;20074;-91
2023/01/12 06:01:55;;;;;;;34.55;6.28;;;5.10;99.90;;;;;;5039095;28;20039;-91
2023/01/12 06:04:20;;;;;;;27.25;4.68;;;5.10;99.90;;;;;;5038062;28;20027;-90
2023/01/12 06:06:47;;;;;;;31.40;4.55;;;5.10;99.90;;;;;;5038342;28;20141;-91
2023/01/12 06:09:13;;;;;;;24.45;4.60;;;5.20;99.90;;;;;;5038751;28;20042;-90
2023/01/12 06:14:23;;;;;;;28.33;5.28;;;5.20;99.90;;;;;;4971000;28;20031;-90
2023/01/12 06:16:48;;;;;;;22.92;4.47;;;5.20;99.90;;;;;;5037998;28;20550;-90
2023/01/12 06:19:14;;;;;;;31.67;5.38;;;5.20;99.90;;;;;;5037725;28;20062;-90
2023/01/12 06:21:40;;;;;;;21.15;4.93;;;5.20;99.90;;;;;;5038172;28;20437;-91
2023/01/12 06:24:06;;;;;;;37.08;5.13;;;5.20;99.90;;;;;;5038592;28;20065;-92
2023/01/12 06:26:32;;;;;;;25.85;4.43;;;5.30;99.90;;;;;;4953916;29;20035;-91
2023/01/12 06:28:58;;;;;;;24.70;4.22;;;5.20;99.90;;;;;;5039134;28;20043;-91
2023/01/12 06:31:24;;;;;;;22.73;4.28;;;5.30;99.90;;;;;;5038712;28;20044;-90
2023/01/12 06:33:49;;;;;;;24.40;4.53;;;5.30;99.90;;;;;;5038381;28;20471;-91
2023/01/12 06:36:15;;;;;;;26.42;5.57;;;5.30;99.90;;;;;;5037678;28;20397;-90
2023/01/12 06:38:42;;;;;;;16.35;4.05;;;5.20;99.90;;;;;;4953691;28;20035;-90
2023/01/12 06:42:27;;;;;;;28.85;4.65;;;5.20;99.90;;;;;;5037773;28;20019;-90
2023/01/12 06:43:58;;;;;;;22.65;4.20;;;5.20;99.90;;;;;;4954293;29;20483;-91
2023/01/12 06:46:27;;;;;;;36.35;9.95;;;5.20;99.90;;;;;;5038840;28;20047;-91
2023/01/12 06:48:57;;;;;;;22.08;4.28;;;5.20;99.90;;;;;;5037984;28;20085;-91
2023/01/12 06:51:23;;;;;;;25.55;4.35;;;5.20;99.90;;;;;;4953684;29;20390;-91
2023/01/12 06:53:49;;;;;;;23.15;4.35;;;5.20;99.90;;;;;;5037349;28;20031;-89
2023/01/12 06:56:14;;;;;;;20.92;3.50;;;5.20;99.90;;;;;;5037124;28;20478;-90
2023/01/12 06:58:43;;;;;;;25.77;4.28;;;5.30;99.90;;;;;;5037371;28;20027;-92
2023/01/12 07:01:09;;;;;;;19.17;3.95;;;5.30;99.90;;;;;;5037279;28;20039;-91
2023/01/12 07:03:34;;;;;;;24.42;3.85;;;5.30;99.90;;;;;;5037827;28;20391;-92
2023/01/12 07:06:00;;;;;;;21.27;3.72;;;5.30;99.90;;;;;;5037228;28;20036;-90
2023/01/12 07:08:26;;;;;;;28.00;4.20;;;5.30;99.90;;;;;;5037040;28;20467;-89
2023/01/12 07:10:52;;;;;;;15.13;3.45;;;5.30;99.90;;;;;;4953181;28;20494;-90
2023/01/12 07:13:18;;;;;;;24.23;3.33;;;5.40;99.90;;;;;;4953181;29;20041;-90
2023/01/12 07:15:43;;;;;;;24.55;4.30;;;5.30;99.90;;;;;;5037255;28;20028;-90
2023/01/12 07:18:09;;;;;;;20.80;3.30;;;5.40;99.90;;;;;;5037177;28;20023;-90
2023/01/12 07:20:35;;;;;;;31.38;4.32;;;5.30;99.90;;;;;;5037062;28;20077;-91
2023/01/12 07:23:01;;;;;;;14.82;3.60;;;5.30;99.90;;;;;;5036638;28;20031;-91
2023/01/12 07:25:27;;;;;;;23.02;4.07;;;5.40;99.90;;;;;;5036301;28;20096;-90
2023/01/12 07:27:57;;;;;;;24.80;3.85;;;5.30;99.90;;;;;;5036326;28;20023;-91
2023/01/12 07:30:24;;;;;;;23.02;3.45;;;5.30;99.90;;;;;;4952690;28;20153;-90
2023/01/12 07:32:50;;;;;;;29.13;3.78;;;5.30;99.90;;;;;;4952556;28;20027;-91
2023/01/12 07:35:16;;;;;;;15.07;3.45;;;5.30;99.90;;;;;;5036413;28;20040;-90
2023/01/12 07:37:50;;;;;;;33.28;4.93;;;5.40;99.90;;;;;;4952659;29;20067;-90
2023/01/12 07:40:16;;;;;;;24.85;3.60;;;5.40;99.90;;;;;;4952409;29;20124;-91
2023/01/12 07:42:42;;;;;;;17.55;3.03;;;5.40;99.90;;;;;;4952406;29;20035;-91
2023/01/12 07:45:08;;;;;;;21.70;4.82;;;5.50;99.90;;;;;;4952207;29;20127;-92
2023/01/12 07:47:34;;;;;;;19.58;3.22;;;5.50;99.90;;;;;;4952237;29;20077;-91
2023/01/12 07:50:00;;;;;;;13.25;2.42;;;5.50;99.90;;;;;;5036386;28;20471;-90
2023/01/12 07:52:26;;;;;;;20.75;3.92;;;5.50;99.90;;;;;;5036150;28;20390;-90
2023/01/12 07:54:51;;;;;;;26.42;3.17;;;5.60;99.90;;;;;;5036863;28;20039;-92
2023/01/12 07:57:17;;;;;;;15.23;4.07;;;5.60;99.90;;;;;;4953749;28;20035;-90
2023/01/12 07:59:43;;;;;;;21.83;3.65;;;5.60;99.90;;;;;;5040178;28;20437;-91
2023/01/12 08:02:15;;;;;;;23.75;3.92;;;5.60;99.90;;;;;;5040271;28;20023;-90
2023/01/12 08:04:45;;;;;;;19.10;3.50;;;5.70;99.90;;;;;;4955660;29;20046;-92
2023/01/12 08:07:12;;;;;;;16.90;3.38;;;5.60;99.90;;;;;;5039893;28;20411;-91
2023/01/12 08:09:37;;;;;;;18.15;3.45;;;5.50;99.90;;;;;;4955499;28;20484;-90
2023/01/12 08:12:04;;;;;;;23.58;4.50;;;5.50;99.90;;;;;;5039772;28;20043;-92
2023/01/12 08:14:36;;;;;;;17.42;2.65;;;5.50;99.90;;;;;;5039943;28;20066;-90
2023/01/12 08:17:04;;;;;;;16.25;2.55;;;5.50;99.90;;;;;;4955259;29;20032;-92
2023/01/12 08:19:49;;;;;;;19.27;2.92;;;5.40;99.90;;;;;;4955230;28;20027;-93
2023/01/12 08:22:23;;;;;;;16.88;3.42;;;5.40;99.90;;;;;;4955235;29;20073;-90
2023/01/12 08:24:58;;;;;;;13.43;3.83;;;5.40;99.90;;;;;;4954852;28;20038;-91
2023/01/12 08:27:27;;;;;;;18.70;3.53;;;5.30;99.90;;;;;;4955181;29;20082;-92
2023/01/12 08:29:57;;;;;;;19.60;2.95;;;5.30;99.90;;;;;;4955157;29;20031;-91
2023/01/12 08:32:25;;;;;;;21.92;3.25;;;5.30;99.90;;;;;;4955058;29;20027;-92
2023/01/12 08:34:54;;;;;;;14.82;3.17;;;5.30;99.90;;;;;;4955268;29;20031;-92
2023/01/12 08:37:22;;;;;;;13.55;2.33;;;5.30;99.90;;;;;;4954986;29;20035;-91
2023/01/12 08:39:49;;;;;;;18.98;4.00;;;5.30;99.90;;;;;;4955029;28;20126;-91
2023/01/12 08:42:14;;;;;;;20.58;3.65;;;5.30;99.90;;;;;;4954641;29;20403;-93
2023/01/12 08:44:40;;;;;;;17.08;2.95;;;5.30;99.90;;;;;;5039071;28;20053;-92
2023/01/12 08:47:19;;;;;;;16.27;4.03;;;5.30;99.90;;;;;;5039297;28;20157;-92
2023/01/12 08:49:45;;;;;;;16.52;3.22;;;5.30;99.90;;;;;;5039011;28;20042;-92
2023/01/12 08:52:11;;;;;;;12.93;3.00;;;5.30;99.90;;;;;;4954539;29;20071;-93
2023/01/12 08:54:37;;;;;;;22.23;3.67;;;5.30;99.90;;;;;;4954623;29;20043;-92
2023/01/12 08:57:03;;;;;;;21.02;5.72;;;5.30;99.90;;;;;;5039609;28;20487;-92
2023/01/12 08:59:29;;;;;;;18.40;2.58;;;5.40;99.90;;;;;;5038849;28;20031;-92
2023/01/12 09:01:55;;;;;;;16.13;2.75;;;5.40;99.90;;;;;;5038921;28;20035;-92
2023/01/12 09:04:21;;;;;;;23.40;3.00;;;5.40;99.90;;;;;;5039612;28;20035;-93
2023/01/12 09:06:47;;;;;;;21.67;3.28;;;5.40;99.90;;;;;;5039003;28;20058;-92
2023/01/12 09:09:18;;;;;;;16.60;3.17;;;5.40;99.90;;;;;;4953166;28;20038;-92
2023/01/12 09:11:45;;;;;;;18.55;4.40;;;5.40;99.90;;;;;;4954390;29;20031;-92
2023/01/12 09:14:12;;;;;;;14.45;2.58;;;5.40;99.90;;;;;;4954064;29;20031;-92
2023/01/12 09:16:38;;;;;;;16.77;3.08;;;5.40;99.90;;;;;;4954037;28;20074;-92
2023/01/12 09:19:04;;;;;;;27.75;5.68;;;5.40;99.90;;;;;;4954076;29;20031;-92
2023/01/12 09:21:31;;;;;;;13.90;3.95;;;5.40;99.90;;;;;;5038512;28;20042;-93
2023/01/12 09:23:57;;;;;;;14.20;3.30;;;5.50;99.90;;;;;;4970133;28;20080;-92
2023/01/12 09:26:27;;;;;;;20.77;3.38;;;5.50;99.90;;;;;;4953656;29;20035;-93
2023/01/12 09:28:53;;;;;;;13.77;4.75;;;5.50;99.90;;;;;;4954108;28;20470;-94
2023/01/12 09:31:21;;;;;;;14.52;3.47;;;5.60;99.90;;;;;;4970019;28;20066;-92
2023/01/12 09:33:47;;;;;;;11.55;3.70;;;5.60;99.90;;;;;;4954180;29;20125;-91
2023/01/12 09:36:20;;;;;;;20.77;3.90;;;5.60;99.90;;;;;;4954187;29;20395;-93
2023/01/12 09:38:47;;;;;;;16.42;3.58;;;5.70;99.90;;;;;;4954308;28;20031;-92
2023/01/12 09:47:07;;;;;;;21.33;5.43;;;5.70;99.90;;;;;;4970247;28;20395;-92
2023/01/12 09:49:39;;;;;;;19.88;3.33;;;5.80;99.90;;;;;;5038076;28;20418;-91
2023/01/12 09:52:22;;;;;;;27.58;3.75;;;5.80;99.90;;;;;;4953871;28;20035;-92
2023/01/12 09:54:50;;;;;;;16.70;3.90;;;5.90;99.90;;;;;;4953938;29;20035;-92
2023/01/12 09:57:51;;;;;;;16.30;3.42;;;5.90;99.90;;;;;;4953880;28;20367;-91
2023/01/12 10:00:19;;;;;;;18.75;3.97;;;6.00;99.90;;;;;;4976535;28;20066;-92
2023/01/12 10:03:02;;;;;;;18.58;2.72;;;6.00;99.90;;;;;;5037350;28;20498;-91
2023/01/12 10:05:37;;;;;;;15.38;3.60;;;6.00;99.90;;;;;;4969293;28;20031;-93
2023/01/12 10:08:04;;;;;;;20.80;4.55;;;6.00;99.90;;;;;;4969581;28;20035;-92
2023/01/12 10:10:29;;;;;;;14.90;3.85;;;6.10;99.90;;;;;;4953156;29;20089;-91
2023/01/12 10:13:01;;;;;;;18.60;4.03;;;6.10;99.90;;;;;;5037201;28;20471;-92
2023/01/12 10:15:44;;;;;;;16.92;4.25;;;6.10;99.90;;;;;;5037797;28;20035;-93
2023/01/12 10:18:23;;;;;;;23.70;3.95;;;6.20;99.90;;;;;;4953282;28;20443;-92
2023/01/12 10:20:49;;;;;;;19.63;4.13;;;6.20;99.90;;;;;;4952846;28;20073;-93
2023/01/12 10:23:19;;;;;;;30.98;2.72;;;6.20;99.90;;;;;;5036869;28;20035;-91
2023/01/12 10:25:52;;;;;;;8.68;2.45;;;6.30;99.90;;;;;;4952681;28;20042;-90
2023/01/12 10:28:32;;;;;;;18.00;3.47;;;6.20;99.90;;;;;;4969402;28;20395;-93
2023/01/12 10:30:58;;;;;;;21.13;6.78;;;6.30;99.90;;;;;;4952855;29;20031;-91
2023/01/12 10:33:26;;;;;;;21.35;4.88;;;6.30;99.90;;;;;;4952810;29;20593;-92
2023/01/12 10:36:08;;;;;;;24.90;2.75;;;6.30;99.90;;;;;;5036592;28;20542;-93
2023/01/12 10:38:53;;;;;;;20.65;4.53;;;6.30;99.90;;;;;;4952914;29;20081;-92
2023/01/12 10:41:21;;;;;;;15.23;3.40;;;6.30;99.90;;;;;;4952872;29;20031;-93
2023/01/12 10:43:59;;;;;;;11.90;2.55;;;6.40;99.90;;;;;;5036688;28;20040;-91
2023/01/12 10:46:30;;;;;;;16.48;2.58;;;6.40;99.90;;;;;;4968738;28;20047;-92
2023/01/12 10:49:14;;;;;;;13.60;2.83;;;6.30;99.90;;;;;;5036304;28;20035;-91
2023/01/12 10:52:19;;;;;;;7.45;2.60;;;6.30;99.90;;;;;;4969023;28;20435;-92
2023/01/12 10:54:48;;;;;;;16.35;2.78;;;6.30;99.90;;;;;;4961931;28;20735;-93
2023/01/12 10:57:22;;;;;;;15.07;2.90;;;6.30;99.90;;;;;;4952637;28;20535;-90
2023/01/12 10:59:54;;;;;;;15.05;2.22;;;6.30;99.90;;;;;;4968779;28;20368;-91
2023/01/12 11:02:22;;;;;;;20.27;2.78;;;6.50;99.90;;;;;;5036451;28;20485;-92
2023/01/12 11:04:52;;;;;;;12.77;1.92;;;6.50;99.90;;;;;;5036575;28;20031;-92
2023/01/12 11:07:21;;;;;;;9.63;2.15;;;6.50;99.90;;;;;;4952899;29;20063;-94
2023/01/12 11:09:47;;;;;;;9.10;3.35;;;6.60;99.90;;;;;;4952432;29;20035;-91
2023/01/12 11:12:26;;;;;;;18.42;2.95;;;6.60;99.90;;;;;;4952465;29;20073;-92
2023/01/12 11:15:03;;;;;;;15.00;2.28;;;6.60;99.90;;;;;;4968490;28;20063;-93
2023/01/12 11:20:21;;;;;;;9.77;2.08;;;6.60;99.90;;;;;;4968555;28;20122;-92
2023/01/12 11:22:50;;;;;;;11.25;1.90;;;6.60;99.90;;;;;;5036170;28;20027;-93
2023/01/12 11:25:20;;;;;;;9.25;2.25;;;6.60;99.90;;;;;;4952227;29;20061;-92
2023/01/12 11:28:01;;;;;;;13.05;2.10;;;6.60;99.90;;;;;;4951786;28;20043;-90
2023/01/12 11:30:45;;;;;;;10.20;2.35;;;6.60;99.90;;;;;;4952705;29;20359;-91
2023/01/12 11:33:41;;;;;;;11.05;3.33;;;6.60;99.90;;;;;;4951127;29;20039;-91
2023/01/12 11:36:16;;;;;;;11.35;2.30;;;6.60;99.90;;;;;;5035776;28;20130;-91
2023/01/12 11:38:48;;;;;;;20.25;4.13;;;6.60;99.90;;;;;;5035809;28;20038;-92
2023/01/12 11:41:39;;;;;;;14.15;2.33;;;6.70;99.90;;;;;;4952271;28;20486;-91
2023/01/12 11:44:25;;;;;;;17.55;2.70;;;6.60;99.90;;;;;;4968158;28;20248;-92
2023/01/12 11:47:03;;;;;;;11.52;2.10;;;6.60;99.90;;;;;;4952442;29;20740;-92
2023/01/12 11:49:57;;;;;;;13.13;2.67;;;6.50;99.90;;;;;;5035688;28;20676;-92
2023/01/12 11:52:24;;;;;;;9.48;2.95;;;6.50;99.90;;;;;;4956019;28;20050;-91
2023/01/12 11:54:50;;;;;;;13.18;2.80;;;6.50;99.90;;;;;;4951672;28;20498;-92
2023/01/12 11:58:00;;;;;;;13.15;3.60;;;6.50;99.90;;;;;;5035616;28;20059;-91
2023/01/12 12:00:55;;;;;;;13.63;3.33;;;6.60;99.90;;;;;;5012151;28;20133;-91
2023/01/12 12:04:00;;;;;;;13.23;3.92;;;6.60;99.90;;;;;;5011978;28;20065;-91
2023/01/12 12:06:50;;;;;;;16.40;4.65;;;6.60;99.90;;;;;;4970633;28;20134;-91
2023/01/12 12:09:30;;;;;;;10.65;3.50;;;6.60;99.90;;;;;;4951508;29;20031;-91
2023/01/12 12:11:59;;;;;;;13.88;3.63;;;6.60;99.90;;;;;;4951261;29;20098;-91
2023/01/12 12:14:39;;;;;;;11.70;3.50;;;6.50;99.90;;;;;;4951005;28;20031;-92
2023/01/12 12:17:31;;;;;;;11.07;2.63;;;6.60;99.90;;;;;;4967374;28;20050;-93
2023/01/12 12:19:56;;;;;;;;;;;6.60;99.90;;;;;;4944581;28;20394;-92
2023/01/12 12:22:42;;;;;;;10.80;2.40;;;6.60;99.90;;;;;;5052197;28;19910;-92
2023/01/12 12:25:26;;;;;;;13.93;3.47;;;6.70;99.90;;;;;;4966898;28;20039;-92
2023/01/12 12:28:29;;;;;;;14.15;1.92;;;6.70;99.90;;;;;;4967387;28;20089;-92
2023/01/12 12:31:05;;;;;;;6.30;1.95;;;6.80;99.90;;;;;;4951723;29;20039;-91
2023/01/12 12:34:07;;;;;;;7.13;2.90;;;6.80;99.90;;;;;;4967016;28;20699;-93
2023/01/12 12:37:03;;;;;;;7.80;2.17;;;6.70;99.90;;;;;;4951499;29;20085;-92
2023/01/12 12:39:35;;;;;;;3.40;1.60;;;6.70;99.90;;;;;;5035455;28;20040;-92
2023/01/12 12:45:34;;;;;;;12.65;2.85;;;6.70;99.90;;;;;;4970617;28;20070;-91
2023/01/12 12:48:05;;;;;;;7.07;1.88;;;6.60;99.90;;;;;;4970270;28;20028;-92
2023/01/12 12:50:59;;;;;;;3.42;1.35;;;6.60;99.90;;;;;;4970373;28;20067;-91
2023/01/12 12:53:40;;;;;;;6.50;1.83;;;6.60;99.90;;;;;;4970920;28;20047;-92
2023/01/12 12:56:09;;;;;;;4.88;1.75;;;6.60;99.90;;;;;;4955319;28;20581;-91
2023/01/12 12:58:44;;;;;;;6.00;1.40;;;6.60;99.90;;;;;;4954088;29;20043;-92
2023/01/12 13:01:18;;;;;;;9.85;3.53;;;6.60;99.90;;;;;;4970277;28;20102;-92
2023/01/12 13:03:49;;;;;;;5.47;2.55;;;6.60;99.90;;;;;;4970135;28;20039;-93
2023/01/12 13:06:25;;;;;;;9.43;2.33;;;6.60;99.90;;;;;;4954429;29;20043;-91
2023/01/12 13:08:58;;;;;;;7.28;2.42;;;6.60;99.90;;;;;;4953942;29;20039;-93
2023/01/12 13:11:50;;;;;;;5.82;1.52;;;6.60;99.90;;;;;;4954258;29;20031;-92
2023/01/12 13:14:25;;;;;;;9.95;1.98;;;6.60;99.90;;;;;;4953920;28;20478;-91
2023/01/12 13:16:59;;;;;;;6.13;2.13;;;6.60;99.90;;;;;;4970103;28;20034;-91
2023/01/12 13:19:41;;;;;;;2.97;1.55;;;6.60;99.90;;;;;;5038403;28;20039;-92
2023/01/12 13:22:43;;;;;;;8.88;2.28;;;6.50;99.90;;;;;;4954008;29;20033;-91
2023/01/12 13:25:14;;;;;;;2.95;1.48;;;6.50;99.90;;;;;;4953483;28;20046;-94
2023/01/12 13:28:01;;;;;;;6.93;1.77;;;6.50;99.90;;;;;;4970312;28;20093;-92
2023/01/12 13:30:27;;;;;;;5.55;1.65;;;6.40;99.90;;;;;;4969928;28;20089;-90
2023/01/12 13:32:58;;;;;;;6.82;1.75;;;6.50;99.90;;;;;;4969920;28;20027;-92
2023/01/12 13:35:33;;;;;;;;;;;6.50;99.90;;;;;;4970236;28;20039;-90
2023/01/12 13:38:25;;;;;;;9.23;2.50;;;6.50;99.90;;;;;;5054608;28;19910;-92
2023/01/12 13:40:51;;;;;;;5.95;2.17;;;6.50;99.90;;;;;;4970062;28;20051;-91